Latest Weather Observations for Bickley

IDW60901

Issued at 7:31 pm WST Friday 1 July 2016 (issued every 10 minutes, with the page automatically refreshed every 10 minutes)

About weather observations | Map of Perth area stations | Latest observations for Perth area | Other Formats
Station Details ID: 009240 Name: BICKLEY Lat: -32.01 Lon: 116.14 Height: 384.0 m
Data from the previous 72 hours. | See also: Recent months at Bickley
Date/Time
WST
Temp
°C
App
Temp
°C
Dew
Point
°C
Rel
Hum
%
Delta-T
°C
Wind Press
QNH
hPa
Press
MSL
hPa
Rain since
9am
mm
Dir  Spd
km/h
Gust
km/h
Spd
kts
Gust
kts
01/07:30pm 8.3 4.1 3.8 73 2.0 E 15 20 8 11 - - 0.0
01/07:00pm 8.7 4.5 3.7 71 2.2 E 15 20 8 11 - - 0.0
01/06:30pm 9.6 5.9 4.2 69 2.4 E 13 17 7 9 - - 0.0
01/06:00pm 10.8 7.1 4.5 65 2.9 ESE 13 17 7 9 - - 0.0
01/05:30pm 11.0 7.8 5.1 67 2.8 SE 11 15 6 8 - - 0.0
01/05:00pm 12.6 10.3 5.8 63 3.3 ESE 7 11 4 6 - - 0.0
01/04:30pm 14.5 12.2 5.0 53 4.5 E 6 9 3 5 - - 0.0
01/04:00pm 15.4 13.0 5.3 51 4.9 ESE 7 13 4 7 - - 0.0
01/03:30pm 15.5 12.6 4.8 49 5.1 E 9 15 5 8 - - 0.0
01/03:00pm 15.6 12.8 5.2 50 5.0 ENE 9 13 5 7 - - 0.0
01/02:30pm 15.6 13.1 4.9 49 5.1 NE 7 11 4 6 - - 0.0
01/02:00pm 15.3 13.0 4.7 49 5.1 NNE 6 9 3 5 - - 0.0
01/01:30pm 14.4 11.9 3.8 49 4.9 NE 6 11 3 6 - - 0.0
01/01:00pm 14.5 11.8 3.9 49 5.0 E 7 13 4 7 - - 0.0
01/12:30pm 14.1 10.9 5.2 55 4.3 E 11 17 6 9 - - 0.0
01/12:00pm 13.2 8.6 5.4 59 3.7 E 19 26 10 14 - - 0.0
01/11:30am 12.3 8.4 5.2 62 3.4 E 15 32 8 17 - - 0.0
01/11:00am 12.2 8.7 5.4 63 3.2 ENE 13 22 7 12 - - 0.0
01/10:30am 11.4 7.9 5.5 67 2.8 ENE 13 20 7 11 - - 0.0
01/10:00am 10.5 6.2 5.3 70 2.4 NE 17 26 9 14 - - 0.0
01/09:30am 10.0 5.9 6.3 78 1.8 ENE 17 26 9 14 - - 0.0
01/09:00am 8.6 5.7 6.7 88 0.9 ENE 11 17 6 9 - - 0.0
01/08:30am 6.1 2.8 4.6 90 0.7 ENE 11 17 6 9 - - 0.0
01/08:00am 5.1 1.2 3.6 90 0.6 ENE 13 17 7 9 - - 0.0
01/07:30am 4.2 0.2 2.6 89 0.7 NE 13 17 7 9 - - 0.0
01/07:00am 4.2 0.2 2.6 89 0.7 ENE 13 15 7 8 - - 0.0
01/06:30am 4.6 1.0 2.8 88 0.8 ENE 11 13 6 7 - - 0.0
01/06:00am 4.8 1.2 3.0 88 0.8 ENE 11 13 6 7 - - 0.0
01/05:30am 4.7 1.1 2.9 88 0.8 ENE 11 13 6 7 - - 0.0
01/05:00am 4.9 1.3 2.9 87 0.8 ENE 11 13 6 7 - - 0.0
01/04:30am 5.1 1.1 3.1 87 0.8 ENE 13 15 7 8 - - 0.0
01/04:00am 5.4 1.9 3.4 87 0.9 ENE 11 15 6 8 - - 0.0
01/03:30am 5.5 2.0 3.5 87 0.9 ENE 11 15 6 8 - - 0.0
01/03:00am 5.7 2.2 3.5 86 0.9 ENE 11 13 6 7 - - 0.0
01/02:30am 6.0 2.9 3.8 86 1.0 ENE 9 11 5 6 - - 0.0
01/02:00am 6.5 3.5 4.3 86 1.0 ENE 9 11 5 6 - - 0.0
01/01:30am 6.5 3.6 4.5 87 0.9 ENE 9 11 5 6 - - 0.0
01/01:00am 6.6 3.7 4.6 87 0.9 ENE 9 11 5 6 - - 0.0
01/12:30am 6.4 3.0 4.2 86 1.0 E 11 11 6 6 - - 0.0
01/12:00am 6.6 3.6 4.3 85 1.0 E 9 13 5 7 - - 0.0
 
Date/Time
WST
Temp
°C
App
Temp
°C
Dew
Point
°C
Rel
Hum
%
Delta-T
°C
Wind Press
QNH
hPa
Press
MSL
hPa
Rain since
9am
mm
Dir  Spd
km/h
Gust
km/h
Spd
kts
Gust
kts
30/11:30pm 6.7 3.8 4.4 85 1.0 E 9 11 5 6 - - 0.0
30/11:00pm 7.2 4.7 4.7 84 1.1 E 7 9 4 5 - - 0.0
30/10:30pm 7.5 5.0 5.0 84 1.1 E 7 9 4 5 - - 0.0
30/10:00pm 7.5 5.0 4.8 83 1.2 E 7 11 4 6 - - 0.0
30/09:30pm 8.1 5.7 5.4 83 1.2 ESE 7 13 4 7 - - 0.0
30/09:00pm 7.9 5.0 4.8 81 1.4 E 9 13 5 7 - - 0.0
30/08:30pm 8.7 6.2 4.7 76 1.8 SSE 7 13 4 7 - - 0.0
30/08:00pm 9.5 5.9 5.1 74 2.0 SSW 13 15 7 8 - - 0.0
30/07:30pm 9.5 5.9 4.9 73 2.1 SSW 13 17 7 9 - - 0.0
30/07:00pm 9.9 6.7 5.1 72 2.2 SSW 11 15 6 8 - - 0.0
30/06:30pm 10.2 7.1 5.4 72 2.2 SW 11 15 6 8 - - 0.0
30/06:00pm 10.5 7.4 5.5 71 2.3 SW 11 15 6 8 - - 0.0
30/05:30pm 11.0 8.2 5.3 68 2.7 SW 9 13 5 7 - - 0.0
30/05:00pm 12.4 10.1 5.8 64 3.2 SSW 7 11 4 6 - - 0.0
30/04:30pm 14.1 11.4 5.7 57 4.1 SSW 9 13 5 7 - - 0.0
30/04:00pm 14.4 12.5 5.0 53 4.5 WSW 4 15 2 8 - - 0.0
30/03:30pm 14.2 12.2 6.1 58 4.0 SW 6 7 3 4 - - 0.0
30/03:00pm 14.1 11.6 4.9 54 4.4 SSW 7 11 4 6 - - 0.0
30/02:30pm 15.1 12.8 5.0 51 4.9 SSE 6 13 3 7 - - 0.0
30/02:00pm 14.4 12.0 5.2 54 4.4 SSW 7 15 4 8 - - 0.0
30/01:30pm 14.1 11.2 4.7 53 4.5 SW 9 15 5 8 - - 0.0
30/01:00pm 14.4 11.9 5.0 53 4.5 SSW 7 15 4 8 - - 0.0
30/12:30pm 14.2 11.4 5.3 55 4.3 SSW 9 17 5 9 - - 0.0
30/12:00pm 14.4 12.3 6.0 57 4.1 SE 6 11 3 6 - - 0.0
30/11:30am 13.2 10.9 5.9 61 3.5 E 7 13 4 7 - - 0.0
30/11:00am 12.9 10.3 6.0 63 3.3 E 9 13 5 7 - - 0.0
30/10:30am 12.6 10.2 7.1 69 2.7 ENE 9 15 5 8 - - 0.0
30/10:00am 11.5 9.6 7.4 76 2.0 ENE 7 13 4 7 - - 0.0
30/09:30am 10.7 9.1 8.6 87 1.1 ENE 7 13 4 7 - - 0.0
30/09:00am 9.3 7.2 8.1 92 0.6 E 9 15 5 8 - - 0.4
30/08:30am 7.2 4.6 6.1 93 0.5 E 9 13 5 7 - - 0.4
30/08:00am 6.4 3.3 5.4 93 0.5 E 11 15 6 8 - - 0.4
30/07:30am 6.1 2.9 5.1 93 0.4 E 11 15 6 8 - - 0.4
30/07:00am 6.3 2.7 5.1 92 0.5 ESE 13 17 7 9 - - 0.4
30/06:30am 6.3 2.7 5.1 92 0.5 ESE 13 17 7 9 - - 0.4
30/06:00am 6.6 3.4 5.2 91 0.6 ESE 11 15 6 8 - - 0.4
30/05:30am 7.0 3.9 5.6 91 0.6 ESE 11 17 6 9 - - 0.4
30/05:00am 7.0 3.5 5.6 91 0.6 ESE 13 17 7 9 - - 0.4
30/04:30am 7.3 4.3 5.9 91 0.6 ESE 11 17 6 9 - - 0.4
30/04:00am 7.3 3.9 5.9 91 0.6 SE 13 17 7 9 - - 0.2
30/03:30am 7.5 4.1 6.0 90 0.7 SE 13 17 7 9 - - 0.2
30/03:00am 8.1 4.8 6.4 89 0.8 SSE 13 20 7 11 - - 0.2
30/02:30am 8.7 5.2 7.0 89 0.8 SSE 15 22 8 12 - - 0.2
30/02:00am 8.7 5.5 7.0 89 0.8 SSE 13 20 7 11 - - 0.2
30/01:30am 8.8 5.7 7.1 89 0.8 SSE 13 17 7 9 - - 0.2
30/01:00am 8.9 5.4 7.2 89 0.8 SSE 15 20 8 11 - - 0.2
30/12:30am 8.9 5.8 7.2 89 0.8 SSE 13 20 7 11 - - 0.2
30/12:00am 8.9 5.8 7.2 89 0.8 SSE 13 20 7 11 - - 0.2
 
Date/Time
WST
Temp
°C
App
Temp
°C
Dew
Point
°C
Rel
Hum
%
Delta-T
°C
Wind Press
QNH
hPa
Press
MSL
hPa
Rain since
9am
mm
Dir  Spd
km/h
Gust
km/h
Spd
kts
Gust
kts
29/11:30pm 9.1 6.0 7.4 89 0.8 S 13 17 7 9 - - 0.2
29/11:00pm 8.8 5.7 7.1 89 0.8 S 13 17 7 9 - - 0.2
29/10:30pm 9.2 6.2 7.5 89 0.8 S 13 15 7 8 - - 0.2
29/10:00pm 9.1 6.0 7.4 89 0.8 S 13 20 7 11 - - 0.2
29/09:30pm 9.2 6.1 7.3 88 0.9 S 13 17 7 9 - - 0.2
29/09:00pm 9.5 6.5 7.6 88 0.9 S 13 17 7 9 - - 0.2
29/08:30pm 9.7 7.1 7.6 87 1.0 S 11 15 6 8 - - 0.2
29/08:00pm 9.8 7.2 7.7 87 1.0 S 11 17 6 9 - - 0.2
29/07:30pm 10.1 7.5 7.7 85 1.2 SSW 11 15 6 8 - - 0.2
29/07:00pm 10.3 7.6 7.5 83 1.4 SSW 11 13 6 7 - - 0.2
29/06:30pm 10.9 8.4 8.0 82 1.4 SSW 11 15 6 8 - - 0.2
29/06:00pm 11.2 8.6 7.7 79 1.7 SW 11 15 6 8 - - 0.2
29/05:30pm 11.6 9.3 7.3 75 2.1 SSW 9 13 5 7 - - 0.2
29/05:00pm 12.7 10.0 7.2 69 2.7 WSW 11 17 6 9 - - 0.2
29/04:30pm 13.8 10.8 7.8 67 3.0 SW 13 22 7 12 - - 0.2
29/04:00pm 14.6 11.0 8.3 66 3.2 SW 17 26 9 14 - - 0.2
29/03:30pm 13.8 10.9 8.0 68 2.9 SW 13 24 7 13 - - 0.2
29/03:00pm 14.3 10.7 8.3 67 3.1 SW 17 28 9 15 - - 0.2
29/02:30pm 14.5 11.1 9.1 70 2.8 SW 17 30 9 16 - - 0.2
29/02:00pm 14.1 10.5 8.5 69 2.9 WSW 17 30 9 16 - - 0.2
29/01:30pm 14.4 11.3 9.0 70 2.8 WSW 15 24 8 13 - - 0.2
29/01:00pm 14.0 10.4 8.4 69 2.9 WSW 17 26 9 14 - - 0.2
29/12:30pm 15.6 12.7 9.7 68 3.1 W 15 24 8 13 - - 0.2
29/12:00pm 15.1 12.3 9.9 71 2.8 W 15 26 8 14 - - 0.2
29/11:30am 14.3 11.5 10.1 76 2.2 WSW 15 28 8 15 - - 0.2
29/11:00am 14.5 12.9 11.5 82 1.6 SW 11 24 6 13 - - 0.2
29/10:30am 14.0 12.5 12.0 88 1.1 WSW 11 20 6 11 - - 0.2
29/10:00am 13.2 11.7 11.9 92 0.7 WSW 11 20 6 11 - - 0.2
29/09:30am 12.5 10.2 11.6 94 0.5 WSW 15 28 8 15 - - 0.0
29/09:00am 12.3 11.1 11.7 96 0.3 SW 9 15 5 8 - - 25.0
29/08:30am 11.8 10.1 11.3 97 0.3 WSW 11 20 6 11 - - 25.0
29/08:00am 11.5 8.6 11.0 97 0.3 W 17 24 9 13 - - 25.0
29/07:30am 11.0 8.0 10.7 98 0.2 W 17 26 9 14 - - 25.0
29/07:00am 10.3 7.1 10.0 98 0.2 W 17 22 9 12 - - 25.0
29/06:30am 10.5 7.4 10.2 98 0.2 W 17 22 9 12 - - 25.0
29/06:00am 11.3 9.6 11.1 99 0.1 WNW 11 17 6 9 - - 22.6
29/05:30am 11.2 8.7 11.0 99 0.1 W 15 24 8 13 - - 22.4
29/05:00am 11.3 8.8 11.1 99 0.1 W 15 24 8 13 - - 22.4
29/04:30am 11.1 8.2 10.9 99 0.1 W 17 24 9 13 - - 22.4
29/04:00am 11.3 9.6 11.1 99 0.1 W 11 24 6 13 - - 22.4
29/03:30am 11.7 10.1 11.5 99 0.1 W 11 17 6 9 - - 22.4
29/03:00am 11.6 9.6 11.4 99 0.1 WNW 13 22 7 12 - - 22.0
29/02:30am 11.6 9.6 11.4 99 0.1 W 13 20 7 11 - - 22.0
29/02:00am 11.8 9.8 11.6 99 0.1 W 13 24 7 13 - - 22.0
29/01:30am 11.7 9.7 11.5 99 0.1 WNW 13 22 7 12 - - 22.0
29/01:00am 12.1 10.2 11.9 99 0.1 W 13 17 7 9 - - 21.6
29/12:30am 12.6 10.9 12.4 99 0.1 W 13 17 7 9 - - 21.6
29/12:00am 12.7 11.4 12.5 99 0.1 WNW 11 17 6 9 - - 21.6
 
Date/Time
WST
Temp
°C
App
Temp
°C
Dew
Point
°C
Rel
Hum
%
Delta-T
°C
Wind Press
QNH
hPa
Press
MSL
hPa
Rain since
9am
mm
Dir  Spd
km/h
Gust
km/h
Spd
kts
Gust
kts
28/11:30pm 12.8 11.1 12.6 99 0.1 W 13 20 7 11 - - 21.2
28/11:00pm 12.9 11.3 12.7 99 0.1 W 13 17 7 9 - - 21.0
28/10:30pm 12.9 11.3 12.7 99 0.1 WNW 13 22 7 12 - - 20.6
28/10:00pm 13.0 11.4 12.8 99 0.1 WNW 13 20 7 11 - - 20.6
28/09:30pm 13.1 10.8 12.9 99 0.1 WNW 17 26 9 14 - - 20.6
28/09:00pm 13.2 11.7 13.0 99 0.1 WNW 13 20 7 11 - - 20.6
28/08:30pm 13.4 11.9 13.2 99 0.1 WNW 13 22 7 12 - - 20.6
28/08:00pm 13.4 11.9 13.2 99 0.1 WNW 13 22 7 12 - - 20.6

Latest Capital City Observations: Canberra | Sydney | Melbourne | Brisbane | Adelaide | Perth | Hobart | Darwin

Other Formats:

Comma delimited format used in spreadsheet applications
http://www.bom.gov.au/fwo/IDW60901/IDW60901.95610.axf

JavaScript Object Notation format (JSON) in row-major order
http://www.bom.gov.au/fwo/IDW60901/IDW60901.95610.json